sensor_id;sensor_type;location;lat;lon;timestamp;P1;durP1;ratioP1;P2;durP2;ratioP2
16426;SDS011;8322;-33.900;151.170;2022-09-27T00:02:12;20.85;;;14.90;;
16426;SDS011;8322;-33.900;151.170;2022-09-27T00:04:41;15.73;;;11.93;;
16426;SDS011;8322;-33.900;151.170;2022-09-27T00:07:12;18.10;;;13.25;;
16426;SDS011;8322;-33.900;151.170;2022-09-27T00:09:42;16.38;;;11.70;;
16426;SDS011;8322;-33.900;151.170;2022-09-27T00:12:11;17.30;;;11.60;;
16426;SDS011;8322;-33.900;151.170;2022-09-27T00:14:41;20.33;;;11.65;;
16426;SDS011;8322;-33.900;151.170;2022-09-27T00:17:10;15.85;;;9.32;;
16426;SDS011;8322;-33.900;151.170;2022-09-27T00:19:40;11.93;;;9.63;;
16426;SDS011;8322;-33.900;151.170;2022-09-27T00:22:09;10.90;;;8.13;;
16426;SDS011;8322;-33.900;151.170;2022-09-27T00:24:41;8.98;;;6.78;;
16426;SDS011;8322;-33.900;151.170;2022-09-27T00:27:10;13.30;;;7.53;;
16426;SDS011;8322;-33.900;151.170;2022-09-27T00:29:40;13.63;;;7.13;;
16426;SDS011;8322;-33.900;151.170;2022-09-27T00:32:09;13.95;;;7.50;;
16426;SDS011;8322;-33.900;151.170;2022-09-27T00:34:39;13.57;;;7.53;;
16426;SDS011;8322;-33.900;151.170;2022-09-27T00:37:09;10.85;;;7.38;;
16426;SDS011;8322;-33.900;151.170;2022-09-27T00:39:40;9.77;;;6.88;;
16426;SDS011;8322;-33.900;151.170;2022-09-27T00:42:13;9.82;;;6.68;;
16426;SDS011;8322;-33.900;151.170;2022-09-27T00:47:27;8.07;;;4.18;;
16426;SDS011;8322;-33.900;151.170;2022-09-27T00:49:59;4.90;;;3.80;;
16426;SDS011;8322;-33.900;151.170;2022-09-27T00:52:31;5.32;;;4.03;;
16426;SDS011;8322;-33.900;151.170;2022-09-27T00:55:05;8.00;;;3.40;;
16426;SDS011;8322;-33.900;151.170;2022-09-27T00:57:36;5.95;;;3.55;;
16426;SDS011;8322;-33.900;151.170;2022-09-27T01:00:07;9.00;;;4.80;;
16426;SDS011;8322;-33.900;151.170;2022-09-27T01:02:37;7.72;;;4.93;;
16426;SDS011;8322;-33.900;151.170;2022-09-27T01:05:08;8.40;;;5.00;;
16426;SDS011;8322;-33.900;151.170;2022-09-27T01:07:38;7.97;;;5.05;;
16426;SDS011;8322;-33.900;151.170;2022-09-27T01:10:10;12.32;;;6.57;;
16426;SDS011;8322;-33.900;151.170;2022-09-27T01:12:44;8.38;;;6.15;;
16426;SDS011;8322;-33.900;151.170;2022-09-27T01:15:20;8.07;;;5.47;;
16426;SDS011;8322;-33.900;151.170;2022-09-27T01:17:53;8.23;;;5.05;;
16426;SDS011;8322;-33.900;151.170;2022-09-27T01:20:31;13.82;;;8.23;;
16426;SDS011;8322;-33.900;151.170;2022-09-27T01:23:10;10.70;;;6.60;;
16426;SDS011;8322;-33.900;151.170;2022-09-27T01:25:51;10.38;;;7.35;;
16426;SDS011;8322;-33.900;151.170;2022-09-27T01:28:26;10.02;;;7.05;;
16426;SDS011;8322;-33.900;151.170;2022-09-27T01:31:00;12.23;;;8.80;;
16426;SDS011;8322;-33.900;151.170;2022-09-27T01:33:36;13.77;;;8.43;;
16426;SDS011;8322;-33.900;151.170;2022-09-27T01:36:13;11.55;;;7.95;;
16426;SDS011;8322;-33.900;151.170;2022-09-27T01:38:50;13.82;;;8.60;;
16426;SDS011;8322;-33.900;151.170;2022-09-27T01:41:26;13.98;;;8.60;;
16426;SDS011;8322;-33.900;151.170;2022-09-27T01:43:59;11.10;;;7.25;;
16426;SDS011;8322;-33.900;151.170;2022-09-27T01:46:32;9.93;;;6.53;;
16426;SDS011;8322;-33.900;151.170;2022-09-27T01:49:06;10.02;;;5.75;;
16426;SDS011;8322;-33.900;151.170;2022-09-27T01:51:37;11.70;;;6.03;;
16426;SDS011;8322;-33.900;151.170;2022-09-27T01:54:08;7.68;;;4.30;;
16426;SDS011;8322;-33.900;151.170;2022-09-27T01:56:40;6.55;;;3.17;;
16426;SDS011;8322;-33.900;151.170;2022-09-27T01:59:12;5.05;;;3.17;;
16426;SDS011;8322;-33.900;151.170;2022-09-27T02:01:44;4.55;;;3.00;;
16426;SDS011;8322;-33.900;151.170;2022-09-27T02:04:16;5.97;;;2.80;;
16426;SDS011;8322;-33.900;151.170;2022-09-27T02:06:47;3.70;;;2.67;;
16426;SDS011;8322;-33.900;151.170;2022-09-27T02:09:20;5.97;;;3.28;;
16426;SDS011;8322;-33.900;151.170;2022-09-27T02:11:51;5.80;;;2.58;;
16426;SDS011;8322;-33.900;151.170;2022-09-27T02:14:24;3.17;;;2.40;;
16426;SDS011;8322;-33.900;151.170;2022-09-27T02:16:58;3.75;;;2.30;;
16426;SDS011;8322;-33.900;151.170;2022-09-27T02:19:31;2.70;;;2.40;;
16426;SDS011;8322;-33.900;151.170;2022-09-27T02:22:08;5.00;;;2.50;;
16426;SDS011;8322;-33.900;151.170;2022-09-27T02:24:41;4.68;;;2.45;;
16426;SDS011;8322;-33.900;151.170;2022-09-27T02:27:12;3.10;;;2.00;;
16426;SDS011;8322;-33.900;151.170;2022-09-27T02:29:44;3.95;;;1.80;;
16426;SDS011;8322;-33.900;151.170;2022-09-27T02:32:17;2.78;;;2.10;;
16426;SDS011;8322;-33.900;151.170;2022-09-27T02:34:47;2.67;;;2.00;;
16426;SDS011;8322;-33.900;151.170;2022-09-27T02:37:17;5.07;;;2.63;;
16426;SDS011;8322;-33.900;151.170;2022-09-27T02:39:46;3.90;;;2.25;;
16426;SDS011;8322;-33.900;151.170;2022-09-27T02:42:16;2.38;;;2.17;;
16426;SDS011;8322;-33.900;151.170;2022-09-27T02:44:46;4.72;;;2.50;;
16426;SDS011;8322;-33.900;151.170;2022-09-27T02:52:55;6.13;;;3.70;;
16426;SDS011;8322;-33.900;151.170;2022-09-27T02:55:28;7.53;;;3.60;;
16426;SDS011;8322;-33.900;151.170;2022-09-27T02:58:03;8.00;;;4.53;;
16426;SDS011;8322;-33.900;151.170;2022-09-27T03:00:35;5.90;;;3.72;;
16426;SDS011;8322;-33.900;151.170;2022-09-27T03:03:11;9.18;;;3.78;;
16426;SDS011;8322;-33.900;151.170;2022-09-27T03:05:43;6.53;;;3.45;;
16426;SDS011;8322;-33.900;151.170;2022-09-27T03:08:16;8.85;;;4.07;;
16426;SDS011;8322;-33.900;151.170;2022-09-27T03:10:45;6.63;;;3.92;;
16426;SDS011;8322;-33.900;151.170;2022-09-27T03:13:15;7.10;;;3.88;;
16426;SDS011;8322;-33.900;151.170;2022-09-27T03:15:44;7.95;;;4.30;;
16426;SDS011;8322;-33.900;151.170;2022-09-27T03:18:14;7.70;;;4.28;;
16426;SDS011;8322;-33.900;151.170;2022-09-27T03:20:43;9.20;;;4.43;;
16426;SDS011;8322;-33.900;151.170;2022-09-27T03:23:13;7.05;;;4.18;;
16426;SDS011;8322;-33.900;151.170;2022-09-27T03:25:44;8.23;;;4.82;;
16426;SDS011;8322;-33.900;151.170;2022-09-27T03:28:14;8.00;;;4.13;;
16426;SDS011;8322;-33.900;151.170;2022-09-27T03:30:44;8.38;;;4.28;;
16426;SDS011;8322;-33.900;151.170;2022-09-27T03:33:13;6.85;;;4.18;;
16426;SDS011;8322;-33.900;151.170;2022-09-27T03:35:43;7.75;;;4.40;;
16426;SDS011;8322;-33.900;151.170;2022-09-27T03:38:13;6.40;;;4.03;;
16426;SDS011;8322;-33.900;151.170;2022-09-27T03:40:42;7.15;;;4.13;;
16426;SDS011;8322;-33.900;151.170;2022-09-27T03:43:14;6.03;;;3.75;;
16426;SDS011;8322;-33.900;151.170;2022-09-27T03:45:43;6.40;;;3.75;;
16426;SDS011;8322;-33.900;151.170;2022-09-27T03:48:15;6.07;;;3.70;;
16426;SDS011;8322;-33.900;151.170;2022-09-27T03:50:44;6.57;;;3.85;;
16426;SDS011;8322;-33.900;151.170;2022-09-27T03:53:14;6.68;;;3.80;;
16426;SDS011;8322;-33.900;151.170;2022-09-27T03:55:44;5.03;;;2.80;;
16426;SDS011;8322;-33.900;151.170;2022-09-27T03:58:15;3.78;;;2.70;;
16426;SDS011;8322;-33.900;151.170;2022-09-27T04:00:45;6.40;;;3.47;;
16426;SDS011;8322;-33.900;151.170;2022-09-27T04:03:15;5.70;;;2.60;;
16426;SDS011;8322;-33.900;151.170;2022-09-27T04:05:44;4.63;;;2.90;;
16426;SDS011;8322;-33.900;151.170;2022-09-27T04:08:14;4.90;;;3.30;;
16426;SDS011;8322;-33.900;151.170;2022-09-27T04:10:43;5.70;;;2.97;;
16426;SDS011;8322;-33.900;151.170;2022-09-27T04:13:13;5.35;;;3.47;;
16426;SDS011;8322;-33.900;151.170;2022-09-27T04:15:44;4.20;;;2.70;;
16426;SDS011;8322;-33.900;151.170;2022-09-27T04:18:14;5.63;;;3.20;;
16426;SDS011;8322;-33.900;151.170;2022-09-27T04:20:43;7.97;;;3.50;;
16426;SDS011;8322;-33.900;151.170;2022-09-27T04:23:13;5.38;;;3.00;;
16426;SDS011;8322;-33.900;151.170;2022-09-27T04:25:43;4.43;;;3.15;;
16426;SDS011;8322;-33.900;151.170;2022-09-27T04:28:12;6.03;;;3.40;;
16426;SDS011;8322;-33.900;151.170;2022-09-27T04:30:42;4.43;;;3.20;;
16426;SDS011;8322;-33.900;151.170;2022-09-27T04:33:13;3.33;;;2.50;;
16426;SDS011;8322;-33.900;151.170;2022-09-27T04:35:42;4.05;;;2.40;;
16426;SDS011;8322;-33.900;151.170;2022-09-27T04:38:28;4.43;;;2.60;;
16426;SDS011;8322;-33.900;151.170;2022-09-27T04:40:57;4.03;;;2.45;;
16426;SDS011;8322;-33.900;151.170;2022-09-27T04:43:28;4.05;;;2.53;;
16426;SDS011;8322;-33.900;151.170;2022-09-27T04:45:57;3.63;;;2.30;;
16426;SDS011;8322;-33.900;151.170;2022-09-27T04:48:29;5.25;;;2.60;;
16426;SDS011;8322;-33.900;151.170;2022-09-27T04:50:58;3.55;;;2.80;;
16426;SDS011;8322;-33.900;151.170;2022-09-27T04:53:29;4.88;;;2.88;;
16426;SDS011;8322;-33.900;151.170;2022-09-27T04:55:59;5.38;;;3.30;;
16426;SDS011;8322;-33.900;151.170;2022-09-27T04:58:31;9.02;;;3.20;;
16426;SDS011;8322;-33.900;151.170;2022-09-27T05:01:01;6.43;;;3.00;;
16426;SDS011;8322;-33.900;151.170;2022-09-27T05:03:33;6.60;;;3.30;;
16426;SDS011;8322;-33.900;151.170;2022-09-27T05:06:02;6.97;;;2.88;;
16426;SDS011;8322;-33.900;151.170;2022-09-27T05:08:32;4.72;;;2.50;;
16426;SDS011;8322;-33.900;151.170;2022-09-27T05:11:01;6.25;;;2.70;;
16426;SDS011;8322;-33.900;151.170;2022-09-27T05:13:31;4.13;;;2.67;;
16426;SDS011;8322;-33.900;151.170;2022-09-27T05:16:01;4.78;;;2.42;;
16426;SDS011;8322;-33.900;151.170;2022-09-27T05:18:33;3.67;;;2.53;;
16426;SDS011;8322;-33.900;151.170;2022-09-27T05:21:02;2.90;;;2.13;;
16426;SDS011;8322;-33.900;151.170;2022-09-27T05:23:32;3.55;;;2.80;;
16426;SDS011;8322;-33.900;151.170;2022-09-27T05:26:03;4.97;;;2.22;;
16426;SDS011;8322;-33.900;151.170;2022-09-27T05:28:32;4.78;;;2.47;;
16426;SDS011;8322;-33.900;151.170;2022-09-27T05:31:02;5.18;;;2.78;;
16426;SDS011;8322;-33.900;151.170;2022-09-27T05:33:33;4.53;;;2.92;;
16426;SDS011;8322;-33.900;151.170;2022-09-27T05:36:03;7.43;;;2.70;;
16426;SDS011;8322;-33.900;151.170;2022-09-27T05:38:33;4.22;;;2.85;;
16426;SDS011;8322;-33.900;151.170;2022-09-27T05:41:02;5.82;;;2.70;;
16426;SDS011;8322;-33.900;151.170;2022-09-27T05:43:32;8.13;;;2.83;;
16426;SDS011;8322;-33.900;151.170;2022-09-27T05:46:01;7.05;;;2.70;;
16426;SDS011;8322;-33.900;151.170;2022-09-27T05:48:33;4.55;;;2.75;;
16426;SDS011;8322;-33.900;151.170;2022-09-27T05:51:03;4.78;;;2.60;;
16426;SDS011;8322;-33.900;151.170;2022-09-27T05:53:33;4.15;;;2.40;;
16426;SDS011;8322;-33.900;151.170;2022-09-27T05:56:02;8.57;;;2.53;;
16426;SDS011;8322;-33.900;151.170;2022-09-27T05:58:32;2.88;;;2.40;;
16426;SDS011;8322;-33.900;151.170;2022-09-27T06:01:04;4.03;;;2.45;;
16426;SDS011;8322;-33.900;151.170;2022-09-27T06:03:36;4.53;;;2.58;;
16426;SDS011;8322;-33.900;151.170;2022-09-27T06:06:06;11.18;;;2.72;;
16426;SDS011;8322;-33.900;151.170;2022-09-27T06:08:35;3.83;;;2.72;;
16426;SDS011;8322;-33.900;151.170;2022-09-27T06:11:05;6.78;;;2.75;;
16426;SDS011;8322;-33.900;151.170;2022-09-27T06:13:36;8.15;;;3.03;;
16426;SDS011;8322;-33.900;151.170;2022-09-27T06:16:06;3.83;;;2.55;;
16426;SDS011;8322;-33.900;151.170;2022-09-27T06:18:37;6.22;;;2.80;;
16426;SDS011;8322;-33.900;151.170;2022-09-27T06:21:07;5.20;;;2.40;;
16426;SDS011;8322;-33.900;151.170;2022-09-27T06:23:38;5.20;;;2.50;;
16426;SDS011;8322;-33.900;151.170;2022-09-27T06:26:08;6.93;;;2.55;;
16426;SDS011;8322;-33.900;151.170;2022-09-27T06:28:37;5.80;;;2.42;;
16426;SDS011;8322;-33.900;151.170;2022-09-27T06:31:07;4.22;;;2.28;;
16426;SDS011;8322;-33.900;151.170;2022-09-27T06:33:38;5.03;;;2.30;;
16426;SDS011;8322;-33.900;151.170;2022-09-27T06:36:08;6.80;;;2.60;;
16426;SDS011;8322;-33.900;151.170;2022-09-27T06:38:38;4.13;;;1.90;;
16426;SDS011;8322;-33.900;151.170;2022-09-27T06:41:07;3.47;;;2.03;;
16426;SDS011;8322;-33.900;151.170;2022-09-27T06:43:38;4.60;;;2.60;;
16426;SDS011;8322;-33.900;151.170;2022-09-27T06:46:07;4.65;;;2.42;;
16426;SDS011;8322;-33.900;151.170;2022-09-27T06:48:39;5.65;;;2.53;;
16426;SDS011;8322;-33.900;151.170;2022-09-27T06:51:08;4.68;;;2.60;;
16426;SDS011;8322;-33.900;151.170;2022-09-27T06:53:38;6.30;;;3.65;;
16426;SDS011;8322;-33.900;151.170;2022-09-27T06:56:08;5.72;;;2.90;;
16426;SDS011;8322;-33.900;151.170;2022-09-27T06:58:37;7.80;;;3.53;;
16426;SDS011;8322;-33.900;151.170;2022-09-27T07:01:26;5.75;;;2.95;;
16426;SDS011;8322;-33.900;151.170;2022-09-27T07:03:58;6.22;;;2.63;;
16426;SDS011;8322;-33.900;151.170;2022-09-27T07:06:27;6.43;;;2.42;;
16426;SDS011;8322;-33.900;151.170;2022-09-27T07:08:57;4.50;;;2.15;;
16426;SDS011;8322;-33.900;151.170;2022-09-27T07:11:26;5.43;;;2.30;;
16426;SDS011;8322;-33.900;151.170;2022-09-27T07:13:56;6.07;;;2.47;;
16426;SDS011;8322;-33.900;151.170;2022-09-27T07:16:26;6.78;;;2.45;;
16426;SDS011;8322;-33.900;151.170;2022-09-27T07:18:58;3.00;;;2.10;;
16426;SDS011;8322;-33.900;151.170;2022-09-27T07:21:28;4.22;;;1.83;;
16426;SDS011;8322;-33.900;151.170;2022-09-27T07:23:57;3.67;;;1.90;;
16426;SDS011;8322;-33.900;151.170;2022-09-27T07:26:27;2.45;;;2.00;;
16426;SDS011;8322;-33.900;151.170;2022-09-27T07:28:57;4.63;;;2.25;;
16426;SDS011;8322;-33.900;151.170;2022-09-27T07:31:26;7.00;;;3.50;;
16426;SDS011;8322;-33.900;151.170;2022-09-27T07:33:58;5.95;;;3.13;;
16426;SDS011;8322;-33.900;151.170;2022-09-27T07:36:28;2.38;;;1.55;;
16426;SDS011;8322;-33.900;151.170;2022-09-27T07:38:58;4.07;;;1.77;;
16426;SDS011;8322;-33.900;151.170;2022-09-27T07:41:27;3.72;;;1.95;;
16426;SDS011;8322;-33.900;151.170;2022-09-27T07:43:57;4.55;;;2.15;;
16426;SDS011;8322;-33.900;151.170;2022-09-27T07:46:26;4.05;;;2.10;;
16426;SDS011;8322;-33.900;151.170;2022-09-27T07:48:59;3.10;;;2.00;;
16426;SDS011;8322;-33.900;151.170;2022-09-27T07:51:29;19.63;;;6.35;;
16426;SDS011;8322;-33.900;151.170;2022-09-27T07:53:59;5.95;;;2.65;;
16426;SDS011;8322;-33.900;151.170;2022-09-27T07:56:28;3.33;;;1.70;;
16426;SDS011;8322;-33.900;151.170;2022-09-27T07:59:00;5.10;;;3.63;;
16426;SDS011;8322;-33.900;151.170;2022-09-27T08:01:30;4.80;;;2.20;;
16426;SDS011;8322;-33.900;151.170;2022-09-27T08:04:02;4.75;;;2.20;;
16426;SDS011;8322;-33.900;151.170;2022-09-27T08:06:32;3.55;;;1.95;;
16426;SDS011;8322;-33.900;151.170;2022-09-27T08:09:04;10.95;;;6.10;;
16426;SDS011;8322;-33.900;151.170;2022-09-27T08:11:34;8.38;;;4.03;;
16426;SDS011;8322;-33.900;151.170;2022-09-27T08:14:04;9.65;;;4.90;;
16426;SDS011;8322;-33.900;151.170;2022-09-27T08:16:34;5.20;;;2.00;;
16426;SDS011;8322;-33.900;151.170;2022-09-27T08:19:05;5.35;;;2.03;;
16426;SDS011;8322;-33.900;151.170;2022-09-27T08:21:35;2.70;;;1.80;;
16426;SDS011;8322;-33.900;151.170;2022-09-27T08:24:05;2.78;;;1.90;;
16426;SDS011;8322;-33.900;151.170;2022-09-27T08:26:35;3.78;;;1.80;;
16426;SDS011;8322;-33.900;151.170;2022-09-27T08:29:04;8.20;;;2.80;;
16426;SDS011;8322;-33.900;151.170;2022-09-27T08:31:34;4.05;;;2.30;;
16426;SDS011;8322;-33.900;151.170;2022-09-27T08:34:05;10.00;;;5.53;;
16426;SDS011;8322;-33.900;151.170;2022-09-27T08:36:34;5.93;;;3.00;;
16426;SDS011;8322;-33.900;151.170;2022-09-27T08:39:04;5.95;;;2.63;;
16426;SDS011;8322;-33.900;151.170;2022-09-27T08:41:34;4.88;;;2.47;;
16426;SDS011;8322;-33.900;151.170;2022-09-27T08:44:08;6.38;;;3.20;;
16426;SDS011;8322;-33.900;151.170;2022-09-27T08:46:41;9.50;;;4.57;;
16426;SDS011;8322;-33.900;151.170;2022-09-27T08:49:15;6.30;;;3.60;;
16426;SDS011;8322;-33.900;151.170;2022-09-27T08:51:47;4.97;;;2.55;;
16426;SDS011;8322;-33.900;151.170;2022-09-27T08:54:18;10.07;;;3.60;;
16426;SDS011;8322;-33.900;151.170;2022-09-27T08:56:49;5.43;;;3.17;;
16426;SDS011;8322;-33.900;151.170;2022-09-27T08:59:22;10.10;;;3.53;;
16426;SDS011;8322;-33.900;151.170;2022-09-27T09:01:54;6.50;;;3.00;;
16426;SDS011;8322;-33.900;151.170;2022-09-27T09:04:26;3.53;;;2.15;;
16426;SDS011;8322;-33.900;151.170;2022-09-27T09:06:59;6.70;;;2.35;;
16426;SDS011;8322;-33.900;151.170;2022-09-27T09:09:32;9.95;;;2.78;;
16426;SDS011;8322;-33.900;151.170;2022-09-27T09:12:07;7.75;;;3.53;;
16426;SDS011;8322;-33.900;151.170;2022-09-27T09:14:58;7.65;;;4.07;;
16426;SDS011;8322;-33.900;151.170;2022-09-27T09:20:32;8.95;;;4.30;;
16426;SDS011;8322;-33.900;151.170;2022-09-27T09:25:48;8.40;;;4.45;;
16426;SDS011;8322;-33.900;151.170;2022-09-27T09:28:25;3.83;;;2.28;;
16426;SDS011;8322;-33.900;151.170;2022-09-27T09:31:00;6.00;;;2.97;;
16426;SDS011;8322;-33.900;151.170;2022-09-27T09:33:34;4.68;;;2.30;;
16426;SDS011;8322;-33.900;151.170;2022-09-27T09:36:08;4.05;;;2.25;;
16426;SDS011;8322;-33.900;151.170;2022-09-27T09:38:39;5.38;;;2.10;;
16426;SDS011;8322;-33.900;151.170;2022-09-27T09:41:11;5.88;;;2.65;;
16426;SDS011;8322;-33.900;151.170;2022-09-27T09:43:42;5.60;;;2.65;;
16426;SDS011;8322;-33.900;151.170;2022-09-27T09:46:14;8.98;;;4.05;;
16426;SDS011;8322;-33.900;151.170;2022-09-27T09:48:45;7.60;;;3.60;;
16426;SDS011;8322;-33.900;151.170;2022-09-27T09:51:18;6.65;;;3.30;;
16426;SDS011;8322;-33.900;151.170;2022-09-27T09:53:51;5.05;;;3.33;;
16426;SDS011;8322;-33.900;151.170;2022-09-27T09:56:22;5.68;;;3.20;;
16426;SDS011;8322;-33.900;151.170;2022-09-27T09:58:53;8.50;;;3.58;;
16426;SDS011;8322;-33.900;151.170;2022-09-27T10:01:24;4.88;;;2.50;;
16426;SDS011;8322;-33.900;151.170;2022-09-27T10:03:55;9.13;;;3.45;;
16426;SDS011;8322;-33.900;151.170;2022-09-27T10:06:26;8.02;;;3.08;;
16426;SDS011;8322;-33.900;151.170;2022-09-27T10:08:57;6.85;;;3.22;;
16426;SDS011;8322;-33.900;151.170;2022-09-27T10:11:28;7.47;;;3.55;;
16426;SDS011;8322;-33.900;151.170;2022-09-27T10:13:59;9.13;;;4.82;;
16426;SDS011;8322;-33.900;151.170;2022-09-27T10:16:29;9.30;;;4.35;;
16426;SDS011;8322;-33.900;151.170;2022-09-27T10:19:01;10.63;;;5.00;;
16426;SDS011;8322;-33.900;151.170;2022-09-27T10:21:33;7.88;;;3.40;;
16426;SDS011;8322;-33.900;151.170;2022-09-27T10:24:07;6.10;;;3.45;;
16426;SDS011;8322;-33.900;151.170;2022-09-27T10:26:38;6.15;;;3.70;;
16426;SDS011;8322;-33.900;151.170;2022-09-27T10:31:58;9.45;;;4.80;;
16426;SDS011;8322;-33.900;151.170;2022-09-27T10:34:30;10.15;;;5.32;;
16426;SDS011;8322;-33.900;151.170;2022-09-27T10:37:13;8.82;;;4.63;;
16426;SDS011;8322;-33.900;151.170;2022-09-27T10:39:43;8.43;;;4.57;;
16426;SDS011;8322;-33.900;151.170;2022-09-27T10:44:57;11.98;;;4.40;;
16426;SDS011;8322;-33.900;151.170;2022-09-27T10:47:26;7.20;;;3.58;;
16426;SDS011;8322;-33.900;151.170;2022-09-27T10:50:01;8.30;;;4.07;;
16426;SDS011;8322;-33.900;151.170;2022-09-27T10:52:34;8.23;;;3.47;;
16426;SDS011;8322;-33.900;151.170;2022-09-27T10:55:05;7.45;;;2.92;;
16426;SDS011;8322;-33.900;151.170;2022-09-27T10:57:36;6.65;;;3.15;;
16426;SDS011;8322;-33.900;151.170;2022-09-27T11:00:07;9.95;;;3.88;;
16426;SDS011;8322;-33.900;151.170;2022-09-27T11:02:37;13.45;;;4.50;;
16426;SDS011;8322;-33.900;151.170;2022-09-27T11:05:08;8.32;;;4.38;;
16426;SDS011;8322;-33.900;151.170;2022-09-27T11:07:48;9.18;;;3.85;;
16426;SDS011;8322;-33.900;151.170;2022-09-27T11:10:22;10.13;;;4.43;;
16426;SDS011;8322;-33.900;151.170;2022-09-27T11:13:06;9.43;;;3.75;;
16426;SDS011;8322;-33.900;151.170;2022-09-27T11:15:38;9.25;;;4.75;;
16426;SDS011;8322;-33.900;151.170;2022-09-27T11:18:11;7.63;;;4.50;;
16426;SDS011;8322;-33.900;151.170;2022-09-27T11:20:43;8.68;;;3.72;;
16426;SDS011;8322;-33.900;151.170;2022-09-27T11:26:06;8.27;;;3.10;;
16426;SDS011;8322;-33.900;151.170;2022-09-27T11:28:42;9.88;;;3.63;;
16426;SDS011;8322;-33.900;151.170;2022-09-27T11:31:17;9.38;;;3.75;;
16426;SDS011;8322;-33.900;151.170;2022-09-27T11:33:54;8.48;;;3.30;;
16426;SDS011;8322;-33.900;151.170;2022-09-27T11:36:30;7.28;;;3.42;;
16426;SDS011;8322;-33.900;151.170;2022-09-27T11:39:03;9.75;;;4.00;;
16426;SDS011;8322;-33.900;151.170;2022-09-27T11:41:40;8.57;;;4.32;;
16426;SDS011;8322;-33.900;151.170;2022-09-27T11:44:28;5.88;;;3.42;;
16426;SDS011;8322;-33.900;151.170;2022-09-27T11:47:02;7.72;;;3.13;;
16426;SDS011;8322;-33.900;151.170;2022-09-27T11:49:41;7.70;;;3.92;;
16426;SDS011;8322;-33.900;151.170;2022-09-27T11:52:20;6.45;;;3.55;;
16426;SDS011;8322;-33.900;151.170;2022-09-27T11:55:01;5.32;;;3.97;;
16426;SDS011;8322;-33.900;151.170;2022-09-27T11:57:35;6.30;;;3.47;;
16426;SDS011;8322;-33.900;151.170;2022-09-27T12:03:06;7.97;;;3.88;;
16426;SDS011;8322;-33.900;151.170;2022-09-27T12:05:42;9.30;;;4.13;;
16426;SDS011;8322;-33.900;151.170;2022-09-27T12:08:17;6.70;;;3.83;;
16426;SDS011;8322;-33.900;151.170;2022-09-27T12:10:54;6.30;;;3.75;;
16426;SDS011;8322;-33.900;151.170;2022-09-27T12:13:32;10.30;;;4.10;;
16426;SDS011;8322;-33.900;151.170;2022-09-27T12:16:02;7.47;;;3.85;;
16426;SDS011;8322;-33.900;151.170;2022-09-27T12:18:34;9.05;;;3.50;;
16426;SDS011;8322;-33.900;151.170;2022-09-27T12:21:05;8.30;;;3.90;;
16426;SDS011;8322;-33.900;151.170;2022-09-27T12:23:38;9.60;;;4.10;;
16426;SDS011;8322;-33.900;151.170;2022-09-27T12:26:10;7.25;;;4.00;;
16426;SDS011;8322;-33.900;151.170;2022-09-27T12:28:44;7.65;;;4.05;;
16426;SDS011;8322;-33.900;151.170;2022-09-27T12:31:17;5.90;;;3.75;;
16426;SDS011;8322;-33.900;151.170;2022-09-27T12:33:52;6.38;;;4.10;;
16426;SDS011;8322;-33.900;151.170;2022-09-27T12:36:26;8.65;;;3.55;;
16426;SDS011;8322;-33.900;151.170;2022-09-27T12:38:59;9.57;;;4.18;;
16426;SDS011;8322;-33.900;151.170;2022-09-27T12:41:35;9.38;;;4.03;;
16426;SDS011;8322;-33.900;151.170;2022-09-27T12:44:08;13.35;;;3.97;;
16426;SDS011;8322;-33.900;151.170;2022-09-27T12:46:41;6.35;;;3.30;;
16426;SDS011;8322;-33.900;151.170;2022-09-27T12:49:13;5.32;;;3.17;;
16426;SDS011;8322;-33.900;151.170;2022-09-27T12:51:44;6.75;;;3.40;;
16426;SDS011;8322;-33.900;151.170;2022-09-27T12:54:24;8.70;;;3.60;;
16426;SDS011;8322;-33.900;151.170;2022-09-27T12:57:00;12.40;;;3.92;;
16426;SDS011;8322;-33.900;151.170;2022-09-27T12:59:38;9.02;;;3.83;;
16426;SDS011;8322;-33.900;151.170;2022-09-27T13:02:19;6.68;;;3.40;;
16426;SDS011;8322;-33.900;151.170;2022-09-27T13:05:06;8.43;;;3.42;;
16426;SDS011;8322;-33.900;151.170;2022-09-27T13:07:41;9.00;;;3.65;;
16426;SDS011;8322;-33.900;151.170;2022-09-27T13:10:18;6.55;;;3.28;;
16426;SDS011;8322;-33.900;151.170;2022-09-27T13:12:51;11.43;;;4.07;;
16426;SDS011;8322;-33.900;151.170;2022-09-27T13:15:26;5.88;;;3.53;;
16426;SDS011;8322;-33.900;151.170;2022-09-27T13:17:56;7.05;;;3.45;;
16426;SDS011;8322;-33.900;151.170;2022-09-27T13:20:40;7.10;;;3.60;;
16426;SDS011;8322;-33.900;151.170;2022-09-27T13:25:56;7.40;;;3.70;;
16426;SDS011;8322;-33.900;151.170;2022-09-27T13:28:32;8.27;;;3.47;;
16426;SDS011;8322;-33.900;151.170;2022-09-27T13:31:05;5.50;;;3.38;;
16426;SDS011;8322;-33.900;151.170;2022-09-27T13:33:41;7.05;;;3.72;;
16426;SDS011;8322;-33.900;151.170;2022-09-27T13:41:58;7.15;;;4.05;;
16426;SDS011;8322;-33.900;151.170;2022-09-27T13:44:34;10.10;;;4.13;;
16426;SDS011;8322;-33.900;151.170;2022-09-27T13:47:14;7.45;;;3.95;;
16426;SDS011;8322;-33.900;151.170;2022-09-27T13:49:49;8.98;;;3.92;;
16426;SDS011;8322;-33.900;151.170;2022-09-27T13:52:21;9.77;;;4.28;;
16426;SDS011;8322;-33.900;151.170;2022-09-27T13:54:54;11.18;;;4.65;;
16426;SDS011;8322;-33.900;151.170;2022-09-27T13:57:44;8.98;;;4.38;;
16426;SDS011;8322;-33.900;151.170;2022-09-27T14:00:15;9.13;;;4.28;;
16426;SDS011;8322;-33.900;151.170;2022-09-27T14:02:54;10.02;;;4.50;;
16426;SDS011;8322;-33.900;151.170;2022-09-27T14:05:26;8.30;;;4.72;;
16426;SDS011;8322;-33.900;151.170;2022-09-27T14:07:56;12.15;;;4.45;;
16426;SDS011;8322;-33.900;151.170;2022-09-27T14:10:27;8.70;;;4.63;;
16426;SDS011;8322;-33.900;151.170;2022-09-27T14:12:57;7.60;;;4.18;;
16426;SDS011;8322;-33.900;151.170;2022-09-27T14:15:28;7.90;;;4.70;;
16426;SDS011;8322;-33.900;151.170;2022-09-27T14:18:00;10.88;;;4.75;;
16426;SDS011;8322;-33.900;151.170;2022-09-27T14:20:33;8.30;;;4.60;;
16426;SDS011;8322;-33.900;151.170;2022-09-27T14:23:05;6.68;;;4.85;;
16426;SDS011;8322;-33.900;151.170;2022-09-27T14:25:37;8.25;;;5.07;;
16426;SDS011;8322;-33.900;151.170;2022-09-27T14:28:17;6.88;;;4.57;;
16426;SDS011;8322;-33.900;151.170;2022-09-27T14:30:47;8.20;;;4.90;;
16426;SDS011;8322;-33.900;151.170;2022-09-27T14:33:29;7.07;;;4.60;;
16426;SDS011;8322;-33.900;151.170;2022-09-27T14:35:59;8.20;;;4.30;;
16426;SDS011;8322;-33.900;151.170;2022-09-27T14:38:54;9.38;;;4.80;;
16426;SDS011;8322;-33.900;151.170;2022-09-27T14:41:24;7.07;;;4.40;;
16426;SDS011;8322;-33.900;151.170;2022-09-27T14:43:54;9.18;;;4.85;;
16426;SDS011;8322;-33.900;151.170;2022-09-27T14:46:24;7.70;;;4.50;;
16426;SDS011;8322;-33.900;151.170;2022-09-27T14:48:56;13.02;;;5.13;;
16426;SDS011;8322;-33.900;151.170;2022-09-27T14:51:30;11.93;;;5.13;;
16426;SDS011;8322;-33.900;151.170;2022-09-27T14:54:00;12.25;;;4.78;;
16426;SDS011;8322;-33.900;151.170;2022-09-27T14:56:32;12.73;;;4.88;;
16426;SDS011;8322;-33.900;151.170;2022-09-27T14:59:03;10.15;;;4.57;;
16426;SDS011;8322;-33.900;151.170;2022-09-27T15:01:36;10.68;;;4.88;;
16426;SDS011;8322;-33.900;151.170;2022-09-27T15:04:11;11.25;;;5.00;;
16426;SDS011;8322;-33.900;151.170;2022-09-27T15:06:42;8.52;;;4.53;;
16426;SDS011;8322;-33.900;151.170;2022-09-27T15:09:12;9.20;;;4.65;;
16426;SDS011;8322;-33.900;151.170;2022-09-27T15:11:42;6.32;;;3.92;;
16426;SDS011;8322;-33.900;151.170;2022-09-27T15:14:14;10.70;;;6.68;;
16426;SDS011;8322;-33.900;151.170;2022-09-27T15:16:45;8.38;;;5.22;;
16426;SDS011;8322;-33.900;151.170;2022-09-27T15:19:16;7.65;;;4.80;;
16426;SDS011;8322;-33.900;151.170;2022-09-27T15:21:50;6.50;;;4.47;;